Time;durP1;ratioP1;P1;durP2;ratioP2;P2;SDS_P1;SDS_P2;PMS_P1;PMS_P2;Temp;Humidity;BMP_temperature;BMP_pressure;BME280_temperature;BME280_humidity;BME280_pressure;Samples;Min_cycle;Max_cycle;Signal;HPM_P1;HPM_P2
2023/06/14 00:01:45;;;;;;;1999.90;999.90;;;17.80;76.80;;;;;;5054106;28;20051;-70
2023/06/14 00:04:12;;;;;;;1999.90;999.90;;;17.80;76.90;;;;;;5055011;28;20049;-70
2023/06/14 00:06:38;;;;;;;1999.90;999.90;;;17.70;77.30;;;;;;5054195;28;20133;-70
2023/06/14 00:09:04;;;;;;;1999.90;999.90;;;17.70;77.30;;;;;;5055657;28;20076;-70
2023/06/14 00:11:31;;;;;;;1999.90;999.90;;;17.70;77.50;;;;;;5037242;28;20132;-70
2023/06/14 00:13:57;;;;;;;1999.90;999.90;;;17.70;77.60;;;;;;5054055;28;20132;-70
2023/06/14 00:16:24;;;;;;;1999.90;999.90;;;17.60;77.80;;;;;;5053490;28;20044;-70
2023/06/14 00:18:51;;;;;;;1999.90;999.90;;;17.60;78.10;;;;;;5055093;28;20461;-70
2023/06/14 00:21:17;;;;;;;1999.90;999.90;;;17.50;78.90;;;;;;5054627;28;20114;-70
2023/06/14 00:23:43;;;;;;;1999.90;999.90;;;17.50;78.40;;;;;;5053581;28;20045;-70
2023/06/14 00:26:09;;;;;;;1999.90;999.90;;;17.40;78.50;;;;;;5054567;28;20037;-70
2023/06/14 00:28:35;;;;;;;1999.90;999.90;;;17.40;78.80;;;;;;5054542;28;20144;-73
2023/06/14 00:31:00;;;;;;;1999.90;999.90;;;17.40;79.00;;;;;;5036857;28;20049;-70
2023/06/14 00:33:26;;;;;;;1999.90;999.90;;;17.40;79.30;;;;;;5053424;28;20052;-70
2023/06/14 00:35:53;;;;;;;1999.90;999.90;;;17.30;79.40;;;;;;5054950;28;20053;-70
2023/06/14 00:38:20;;;;;;;1999.90;999.90;;;17.30;79.60;;;;;;5054231;28;20041;-70
2023/06/14 00:40:46;;;;;;;1999.90;999.90;;;17.20;79.70;;;;;;5054237;28;20045;-69
2023/06/14 00:43:12;;;;;;;1999.90;999.90;;;17.20;79.90;;;;;;5054778;28;20041;-70
2023/06/14 00:45:38;;;;;;;1999.90;999.90;;;17.20;80.10;;;;;;5054630;28;20393;-70
2023/06/14 00:48:06;;;;;;;1999.90;999.90;;;17.20;80.40;;;;;;5052970;28;20037;-70
2023/06/14 00:50:32;;;;;;;1999.90;999.90;;;17.10;80.80;;;;;;5052971;28;20064;-69
2023/06/14 00:53:00;;;;;;;1999.90;999.90;;;17.10;81.20;;;;;;5054098;28;20096;-70
2023/06/14 00:55:26;;;;;;;1999.90;999.90;;;17.10;81.30;;;;;;5054029;28;20049;-69
2023/06/14 00:57:53;;;;;;;1999.90;999.90;;;17.00;81.50;;;;;;5053905;28;20049;-69
2023/06/14 01:00:19;;;;;;;1999.90;999.90;;;17.00;81.70;;;;;;5053941;28;20052;-70
2023/06/14 01:02:45;;;;;;;1999.90;999.90;;;17.00;81.90;;;;;;5053952;28;20044;-70
2023/06/14 01:05:12;;;;;;;1999.90;999.90;;;17.00;82.10;;;;;;5053219;28;20081;-70
2023/06/14 01:07:43;;;;;;;1999.90;999.90;;;16.90;82.30;;;;;;5053881;28;20136;-69
2023/06/14 01:10:23;;;;;;;1999.90;999.90;;;16.90;82.60;;;;;;5053802;28;20131;-69
2023/06/14 01:13:07;;;;;;;1999.90;999.90;;;16.90;83.00;;;;;;5054051;28;20048;-70
2023/06/14 01:15:34;;;;;;;1999.90;999.90;;;16.80;83.30;;;;;;5054448;28;20045;-69
2023/06/14 01:18:02;;;;;;;1999.90;999.90;;;16.80;83.20;;;;;;5035849;28;20052;-69
2023/06/14 01:20:32;;;;;;;1999.90;999.90;;;16.70;83.80;;;;;;5053881;28;20067;-69
2023/06/14 01:22:59;;;;;;;1999.90;999.90;;;16.70;83.80;;;;;;5052424;28;20041;-70
2023/06/14 01:25:26;;;;;;;1999.90;999.90;;;16.70;84.00;;;;;;5053578;28;20396;-69
2023/06/14 01:28:01;;;;;;;1999.90;999.90;;;16.70;84.30;;;;;;5053543;28;20047;-69
2023/06/14 01:30:27;;;;;;;1999.90;999.90;;;16.60;84.50;;;;;;5053554;28;20080;-70
2023/06/14 01:32:55;;;;;;;1999.90;999.90;;;16.60;84.80;;;;;;5052342;28;20049;-70
2023/06/14 01:35:22;;;;;;;1999.90;999.90;;;16.60;85.10;;;;;;5052491;28;20127;-69
2023/06/14 01:37:49;;;;;;;1999.90;999.90;;;16.50;85.30;;;;;;5053898;28;20053;-69
2023/06/14 01:40:19;;;;;;;1999.90;999.90;;;16.50;85.60;;;;;;5054172;28;20444;-69
2023/06/14 01:42:47;;;;;;;1999.90;999.90;;;16.50;85.80;;;;;;5052494;28;20481;-69
2023/06/14 01:45:14;;;;;;;1999.90;999.90;;;16.40;86.10;;;;;;5051753;28;20056;-69
2023/06/14 01:47:40;;;;;;;1999.90;999.90;;;16.40;86.40;;;;;;5053963;28;20060;-70
2023/06/14 01:50:07;;;;;;;1999.90;999.90;;;16.40;86.80;;;;;;5053610;28;20377;-70
2023/06/14 01:52:32;;;;;;;1999.90;999.90;;;16.30;87.00;;;;;;5055145;28;20045;-69
2023/06/14 01:54:58;;;;;;;1999.90;999.90;;;16.30;87.50;;;;;;5057292;28;20048;-70
2023/06/14 01:57:26;;;;;;;1999.90;999.90;;;16.30;87.70;;;;;;5057400;28;20053;-71
2023/06/14 01:59:52;;;;;;;1999.90;999.90;;;16.30;88.10;;;;;;5056066;28;20048;-70
2023/06/14 02:02:18;;;;;;;1999.90;999.90;;;16.30;88.30;;;;;;5057284;28;20190;-70
2023/06/14 02:04:46;;;;;;;1999.90;999.90;;;16.20;88.60;;;;;;5039691;28;20127;-71
2023/06/14 02:07:12;;;;;;;1999.90;999.90;;;16.20;89.00;;;;;;5055951;28;20084;-70
2023/06/14 02:09:37;;;;;;;1999.90;999.90;;;16.20;89.30;;;;;;5039838;28;20077;-71
2023/06/14 02:12:03;;;;;;;1999.90;999.90;;;16.20;89.60;;;;;;5056472;28;20465;-70
2023/06/14 02:14:29;;;;;;;1999.90;999.90;;;16.10;89.80;;;;;;5057606;28;20110;-69
2023/06/14 02:16:55;;;;;;;1999.90;999.90;;;16.10;90.00;;;;;;5056697;28;20052;-70
2023/06/14 02:19:21;;;;;;;1999.90;999.90;;;16.10;90.10;;;;;;5056249;28;20049;-70
2023/06/14 02:21:47;;;;;;;1999.90;999.90;;;16.10;90.30;;;;;;5057734;28;20056;-70
2023/06/14 02:24:13;;;;;;;1999.90;999.90;;;16.10;90.40;;;;;;5055758;28;20045;-69
2023/06/14 02:26:39;;;;;;;1999.90;999.90;;;16.10;90.60;;;;;;5056499;28;20492;-70
2023/06/14 02:29:05;;;;;;;1999.90;999.90;;;16.00;90.80;;;;;;5056123;28;20049;-70
2023/06/14 02:31:34;;;;;;;1999.90;999.90;;;16.00;91.00;;;;;;5057531;28;20048;-69
2023/06/14 02:34:00;;;;;;;1999.90;999.90;;;16.00;91.10;;;;;;5056658;28;20053;-69
2023/06/14 02:36:26;;;;;;;1999.90;999.90;;;16.00;91.20;;;;;;5056671;28;20111;-71
2023/06/14 02:38:54;;;;;;;1999.90;999.90;;;15.90;91.40;;;;;;5056535;28;20083;-70
2023/06/14 02:41:19;;;;;;;1999.90;999.90;;;15.90;91.50;;;;;;5055339;28;20393;-69
2023/06/14 02:43:45;;;;;;;1999.90;999.90;;;15.90;91.80;;;;;;5056469;28;20053;-69
2023/06/14 02:46:11;;;;;;;1999.90;999.90;;;15.90;92.00;;;;;;5055929;28;20400;-70
2023/06/14 02:48:37;;;;;;;1999.90;999.90;;;15.80;92.20;;;;;;5055209;28;20045;-69
2023/06/14 02:51:02;;;;;;;1999.90;999.90;;;15.80;92.40;;;;;;5056670;28;20127;-69
2023/06/14 02:53:28;;;;;;;1999.90;999.90;;;15.80;92.60;;;;;;5055189;28;20396;-70
2023/06/14 02:55:55;;;;;;;1999.90;999.90;;;15.80;92.80;;;;;;5056176;28;20138;-69
2023/06/14 02:58:21;;;;;;;1999.90;999.90;;;15.80;93.00;;;;;;5038592;28;20049;-69
2023/06/14 03:00:47;;;;;;;1999.90;999.90;;;15.80;93.20;;;;;;5056257;28;20060;-70
2023/06/14 03:03:15;;;;;;;1999.90;999.90;;;15.80;93.40;;;;;;5054797;28;20094;-70
2023/06/14 03:05:49;;;;;;;1999.90;999.90;;;15.70;93.60;;;;;;5038746;28;20056;-69
2023/06/14 03:08:27;;;;;;;1999.90;999.90;;;15.70;93.90;;;;;;5055941;28;20088;-69
2023/06/14 03:10:53;;;;;;;1999.90;999.90;;;15.70;94.10;;;;;;5056579;28;20131;-70
2023/06/14 03:13:22;;;;;;;1999.90;999.90;;;15.70;94.40;;;;;;5055968;28;20040;-69
2023/06/14 03:15:50;;;;;;;1999.90;999.90;;;15.70;94.70;;;;;;5055263;28;20057;-70
2023/06/14 03:18:16;;;;;;;1999.90;999.90;;;15.70;94.80;;;;;;5055756;28;20085;-70
2023/06/14 03:20:45;;;;;;;1999.90;999.90;;;15.70;95.00;;;;;;5055129;28;20049;-70
2023/06/14 03:23:12;;;;;;;1999.90;999.90;;;15.70;95.30;;;;;;5022150;28;20045;-71
2023/06/14 03:25:38;;;;;;;1999.90;999.90;;;15.70;95.70;;;;;;5055591;28;20088;-70
2023/06/14 03:28:06;;;;;;;1999.90;999.90;;;15.70;95.90;;;;;;5055661;28;20048;-70
2023/06/14 03:30:32;;;;;;;1999.90;999.90;;;15.60;96.20;;;;;;5055649;28;20076;-70
2023/06/14 03:33:00;;;;;;;1999.90;999.90;;;15.60;96.40;;;;;;5056458;28;20437;-70
2023/06/14 03:35:27;;;;;;;1999.90;999.90;;;15.60;96.70;;;;;;5038004;28;20136;-70
2023/06/14 03:37:53;;;;;;;1999.90;999.90;;;15.60;96.90;;;;;;5055477;28;20053;-70
2023/06/14 03:40:23;;;;;;;1999.90;999.90;;;15.70;97.30;;;;;;5056253;28;20048;-70
2023/06/14 03:42:49;;;;;;;1999.90;999.90;;;15.60;97.40;;;;;;5055944;28;20075;-70
2023/06/14 03:45:14;;;;;;;1999.90;999.90;;;15.70;97.70;;;;;;5054694;28;20469;-71
2023/06/14 03:47:40;;;;;;;1999.90;999.90;;;15.70;97.80;;;;;;5054154;28;20049;-70
2023/06/14 03:50:06;;;;;;;1999.90;999.90;;;15.70;98.10;;;;;;5054079;28;20033;-70
2023/06/14 03:52:33;;;;;;;1999.90;999.90;;;15.70;98.40;;;;;;5054489;28;20053;-70
2023/06/14 03:55:00;;;;;;;1999.90;999.90;;;15.70;98.50;;;;;;5053923;28;20179;-71
2023/06/14 03:57:26;;;;;;;1999.90;999.90;;;15.60;98.70;;;;;;5055417;28;20088;-71
2023/06/14 03:59:52;;;;;;;1999.90;999.90;;;15.60;98.90;;;;;;5054995;28;20041;-70
2023/06/14 04:02:18;;;;;;;1999.90;999.90;;;15.70;99.10;;;;;;5055043;28;20507;-70
2023/06/14 04:04:45;;;;;;;1999.90;999.90;;;15.70;99.20;;;;;;5054063;28;20045;-71
2023/06/14 04:07:15;;;;;;;1999.90;999.90;;;15.70;99.40;;;;;;5054925;28;20426;-70
2023/06/14 04:09:41;;;;;;;1999.90;999.90;;;15.70;99.80;;;;;;5054905;28;20052;-70
2023/06/14 04:12:08;;;;;;;1999.90;999.90;;;15.70;99.90;;;;;;5055323;28;20136;-70
2023/06/14 04:14:34;;;;;;;1999.90;999.90;;;15.70;99.90;;;;;;5052978;28;20041;-70
2023/06/14 04:17:00;;;;;;;1999.90;999.90;;;15.80;99.90;;;;;;5037134;28;20485;-70
2023/06/14 04:19:26;;;;;;;1999.90;999.90;;;15.70;99.90;;;;;;5054653;28;20041;-70
2023/06/14 04:21:52;;;;;;;1999.90;999.90;;;15.80;99.90;;;;;;5053677;28;20055;-70
2023/06/14 04:24:18;;;;;;;1999.90;999.90;;;15.80;99.90;;;;;;5054635;28;20103;-70
2023/06/14 04:26:45;;;;;;;1999.90;999.90;;;15.80;99.90;;;;;;5053349;28;20048;-70
2023/06/14 04:29:16;;;;;;;1999.90;999.90;;;15.80;99.90;;;;;;5053642;28;20033;-70
2023/06/14 04:31:45;;;;;;;1999.90;999.90;;;15.80;99.90;;;;;;5053749;28;20053;-70
2023/06/14 04:34:18;;;;;;;1999.90;999.90;;;15.80;99.90;;;;;;5053208;28;20045;-70
2023/06/14 04:36:52;;;;;;;1999.90;999.90;;;15.90;99.90;;;;;;5054476;28;20095;-70
2023/06/14 04:39:19;;;;;;;1999.90;999.90;;;15.90;99.90;;;;;;5053583;28;20052;-70
2023/06/14 04:41:45;;;;;;;1999.90;999.90;;;15.90;99.90;;;;;;5054258;28;20425;-70
2023/06/14 04:44:12;;;;;;;1999.90;999.90;;;15.90;99.90;;;;;;5052852;28;20055;-70
2023/06/14 04:46:48;;;;;;;1999.90;999.90;;;15.90;99.90;;;;;;5036245;28;20098;-70
2023/06/14 04:49:17;;;;;;;1999.90;999.90;;;16.00;99.90;;;;;;5053053;28;20124;-70
2023/06/14 04:51:44;;;;;;;1999.90;999.90;;;16.00;99.90;;;;;;5054069;28;20136;-70
2023/06/14 04:54:13;;;;;;;1999.90;999.90;;;16.00;99.90;;;;;;5054320;28;20060;-70
2023/06/14 04:56:43;;;;;;;1999.90;999.90;;;16.00;99.90;;;;;;5052989;28;20128;-70
2023/06/14 04:59:11;;;;;;;1999.90;999.90;;;16.10;99.90;;;;;;5053879;28;20087;-70
2023/06/14 05:01:37;;;;;;;1999.90;999.90;;;16.10;99.90;;;;;;5053648;28;20497;-70
2023/06/14 05:04:04;;;;;;;1999.90;999.90;;;16.10;99.90;;;;;;5053869;28;20090;-72
2023/06/14 05:06:30;;;;;;;1999.90;999.90;;;16.10;99.90;;;;;;5052432;28;20055;-70
2023/06/14 05:08:56;;;;;;;1999.90;999.90;;;16.10;99.90;;;;;;5053815;28;20045;-70
2023/06/14 05:11:26;;;;;;;1999.90;999.90;;;16.20;99.90;;;;;;5053737;28;20075;-70
2023/06/14 05:13:52;;;;;;;1999.90;999.90;;;16.20;99.90;;;;;;5053333;28;20142;-71
2023/06/14 05:16:19;;;;;;;1999.90;999.90;;;16.30;99.90;;;;;;5053606;28;20115;-70
2023/06/14 05:18:47;;;;;;;1999.90;999.90;;;16.30;99.90;;;;;;5052299;28;20132;-70
2023/06/14 05:21:13;;;;;;;1999.90;999.90;;;16.30;99.90;;;;;;5053608;28;20527;-70
2023/06/14 05:23:38;;;;;;;1999.90;999.90;;;16.40;99.90;;;;;;5053010;28;20076;-70
2023/06/14 05:26:06;;;;;;;1999.90;999.90;;;16.40;99.90;;;;;;5052983;28;20213;-70
2023/06/14 05:28:32;;;;;;;1999.90;999.90;;;16.40;99.90;;;;;;5052552;28;20045;-71
2023/06/14 05:30:58;;;;;;;1999.90;999.90;;;16.50;99.90;;;;;;5053268;28;20167;-70
2023/06/14 05:33:23;;;;;;;1999.90;999.90;;;16.50;99.90;;;;;;5053378;28;20044;-71
2023/06/14 05:35:49;;;;;;;1999.90;999.90;;;16.50;99.90;;;;;;5053444;28;20056;-70
2023/06/14 05:38:15;;;;;;;1999.90;999.90;;;16.60;99.90;;;;;;5052649;28;20539;-70
2023/06/14 05:40:41;;;;;;;1999.90;999.90;;;16.60;99.90;;;;;;5053403;28;20044;-70
2023/06/14 05:43:06;;;;;;;1999.90;999.90;;;16.70;99.90;;;;;;5035527;28;20107;-71
2023/06/14 05:45:32;;;;;;;1999.90;999.90;;;16.70;99.90;;;;;;5053297;28;20053;-70
2023/06/14 05:47:58;;;;;;;1999.90;999.90;;;16.80;99.90;;;;;;5053817;28;20045;-71
2023/06/14 05:50:24;;;;;;;1999.90;999.90;;;16.80;99.90;;;;;;5052272;28;20044;-70
2023/06/14 05:52:49;;;;;;;1999.90;999.90;;;16.80;99.90;;;;;;5036446;28;20056;-70
2023/06/14 05:55:16;;;;;;;1999.90;999.90;;;16.80;99.90;;;;;;5052730;28;20163;-70
2023/06/14 05:57:42;;;;;;;1999.90;999.90;;;16.90;99.90;;;;;;5052259;28;20127;-70
2023/06/14 06:00:10;;;;;;;1999.90;999.90;;;16.90;99.90;;;;;;5053159;28;20123;-70
2023/06/14 06:02:36;;;;;;;1999.90;999.90;;;16.90;99.90;;;;;;5053133;28;20045;-70
2023/06/14 06:05:02;;;;;;;1999.90;999.90;;;17.00;99.90;;;;;;5053130;28;20044;-71
2023/06/14 06:07:28;;;;;;;1999.90;999.90;;;17.00;99.90;;;;;;5035849;28;20052;-72
2023/06/14 06:09:53;;;;;;;1999.90;999.90;;;17.10;99.90;;;;;;5053606;28;20037;-72
2023/06/14 06:12:19;;;;;;;1999.90;999.90;;;17.10;99.90;;;;;;5052442;28;20072;-72
2023/06/14 06:14:45;;;;;;;1999.90;999.90;;;17.20;99.90;;;;;;5053071;28;20045;-72
2023/06/14 06:17:11;;;;;;;1999.90;999.90;;;17.30;99.90;;;;;;5018723;28;20400;-73
2023/06/14 06:19:36;;;;;;;1999.90;999.90;;;17.30;99.90;;;;;;5052268;28;20053;-71
2023/06/14 06:22:04;;;;;;;1999.90;999.90;;;17.40;99.90;;;;;;5052255;28;20052;-72
2023/06/14 06:24:30;;;;;;;1999.90;999.90;;;17.40;99.90;;;;;;5053702;28;20435;-72
2023/06/14 06:26:56;;;;;;;1999.90;999.90;;;17.40;99.90;;;;;;5052438;28;20175;-72
2023/06/14 06:29:21;;;;;;;1999.90;999.90;;;17.50;99.90;;;;;;5053454;28;20045;-72
2023/06/14 06:31:47;;;;;;;1999.90;999.90;;;17.50;99.90;;;;;;5053190;28;20036;-72
2023/06/14 06:34:13;;;;;;;1999.90;999.90;;;17.60;99.90;;;;;;5052076;28;20457;-71
2023/06/14 06:36:39;;;;;;;1999.90;999.90;;;17.60;99.90;;;;;;5052912;28;20047;-72
2023/06/14 06:39:09;;;;;;;1999.90;999.90;;;17.70;99.90;;;;;;5057020;28;20411;-72
2023/06/14 06:41:37;;;;;;;1999.90;999.90;;;17.70;99.90;;;;;;5056705;28;20123;-72
2023/06/14 06:44:03;;;;;;;1999.90;999.90;;;17.80;99.90;;;;;;5056975;28;20061;-72
2023/06/14 06:46:29;;;;;;;1999.90;999.90;;;17.80;99.90;;;;;;5055871;28;20484;-71
2023/06/14 06:48:55;;;;;;;1999.90;999.90;;;17.90;99.90;;;;;;5056578;28;20044;-71
2023/06/14 06:51:21;;;;;;;1999.90;999.90;;;18.00;99.90;;;;;;5039096;28;20044;-72
2023/06/14 06:53:53;;;;;;;1999.90;999.90;;;18.00;99.90;;;;;;5038798;28;20077;-72
2023/06/14 06:56:19;;;;;;;1999.90;999.90;;;18.10;99.90;;;;;;5056351;28;20079;-71
2023/06/14 06:58:45;;;;;;;1999.90;999.90;;;18.10;99.90;;;;;;5056005;28;20504;-71
2023/06/14 07:01:11;;;;;;;1999.90;999.90;;;18.20;99.90;;;;;;5056398;28;20049;-72
2023/06/14 07:03:37;;;;;;;1999.90;999.90;;;18.20;99.90;;;;;;5055141;28;20060;-71
2023/06/14 07:06:03;;;;;;;1999.90;999.90;;;18.30;99.90;;;;;;5056195;28;20049;-71
2023/06/14 07:08:29;;;;;;;1999.90;999.90;;;18.40;99.90;;;;;;5056224;28;20048;-72
2023/06/14 07:10:55;;;;;;;1999.90;999.90;;;18.50;99.90;;;;;;5054889;28;20056;-70
2023/06/14 07:13:20;;;;;;;1999.90;999.90;;;18.50;99.90;;;;;;5056103;28;20045;-71
2023/06/14 07:15:47;;;;;;;1999.90;999.90;;;18.60;99.90;;;;;;5056004;28;20132;-72
2023/06/14 07:18:12;;;;;;;1999.90;999.90;;;18.70;99.90;;;;;;5055981;28;20045;-71
2023/06/14 07:20:38;;;;;;;1999.90;999.90;;;18.70;99.90;;;;;;5055035;28;20055;-71
2023/06/14 07:23:05;;;;;;;1999.90;999.90;;;18.80;99.90;;;;;;5056742;28;20048;-72
2023/06/14 07:25:31;;;;;;;1999.90;999.90;;;18.80;99.90;;;;;;5038293;28;20412;-73
2023/06/14 07:27:57;;;;;;;1999.90;999.90;;;18.90;99.90;;;;;;5055817;28;20057;-71
2023/06/14 07:30:25;;;;;;;1999.90;999.90;;;18.90;99.70;;;;;;5054599;28;20045;-71
2023/06/14 07:32:55;;;;;;;1999.90;999.90;;;19.00;99.50;;;;;;5054592;28;20045;-72
2023/06/14 07:35:21;;;;;;;1999.90;999.90;;;19.10;99.40;;;;;;5056562;28;20108;-73
2023/06/14 07:37:47;;;;;;;1999.90;999.90;;;19.20;99.30;;;;;;5055666;28;20106;-71
2023/06/14 07:40:13;;;;;;;1999.90;999.90;;;19.20;99.20;;;;;;5054309;28;20036;-71
2023/06/14 07:42:39;;;;;;;1999.90;999.90;;;19.30;99.00;;;;;;5054349;28;20040;-72
2023/06/14 07:45:06;;;;;;;1999.90;999.90;;;19.30;98.70;;;;;;5055641;28;20540;-74
2023/06/14 07:47:32;;;;;;;1999.90;999.90;;;19.40;98.40;;;;;;5055206;28;20513;-73
2023/06/14 07:49:58;;;;;;;1999.90;999.90;;;19.50;98.20;;;;;;5053581;28;20102;-72
2023/06/14 07:52:24;;;;;;;1999.90;999.90;;;19.50;97.90;;;;;;5038615;28;20127;-72
2023/06/14 07:54:50;;;;;;;1999.90;999.90;;;19.60;97.80;;;;;;5055337;28;20049;-73
2023/06/14 07:57:16;;;;;;;1999.90;999.90;;;19.70;97.70;;;;;;5055244;28;20041;-71
2023/06/14 07:59:42;;;;;;;1999.90;999.90;;;19.70;97.60;;;;;;5055160;28;20381;-72
2023/06/14 08:02:08;;;;;;;1999.90;999.90;;;19.80;97.40;;;;;;5054239;28;20044;-72
2023/06/14 08:04:34;;;;;;;1999.90;999.90;;;19.90;97.40;;;;;;5055141;28;20048;-70
2023/06/14 08:07:00;;;;;;;1999.90;999.90;;;19.90;97.20;;;;;;5054163;28;20477;-72
2023/06/14 08:09:28;;;;;;;1999.90;999.90;;;19.90;96.80;;;;;;5054903;28;20106;-72
2023/06/14 08:11:54;;;;;;;1999.90;999.90;;;20.00;96.50;;;;;;5054646;28;20485;-71
2023/06/14 08:14:20;;;;;;;1999.90;999.90;;;20.00;96.30;;;;;;5054950;28;20055;-72
2023/06/14 08:16:45;;;;;;;1999.90;999.90;;;20.10;96.10;;;;;;5054803;28;20041;-73
2023/06/14 08:19:11;;;;;;;1999.90;999.90;;;20.20;95.90;;;;;;5054833;28;20047;-72
2023/06/14 08:21:37;;;;;;;1999.90;999.90;;;20.20;95.70;;;;;;5054890;28;20485;-71
2023/06/14 08:24:03;;;;;;;1999.90;999.90;;;20.20;95.40;;;;;;5053748;28;20052;-72
2023/06/14 08:26:29;;;;;;;1999.90;999.90;;;20.30;95.20;;;;;;5054960;28;20507;-73
2023/06/14 08:28:56;;;;;;;1999.90;999.90;;;20.40;94.90;;;;;;5054670;28;20045;-74
2023/06/14 08:31:22;;;;;;;1999.90;999.90;;;20.40;94.80;;;;;;5055463;28;20170;-73
2023/06/14 08:33:47;;;;;;;1999.90;999.90;;;20.50;94.90;;;;;;5054598;28;20084;-71
2023/06/14 08:36:13;;;;;;;1999.90;999.90;;;20.50;94.80;;;;;;5053545;28;20083;-71
2023/06/14 08:38:39;;;;;;;1999.90;999.90;;;20.50;95.00;;;;;;5054284;28;20072;-71
2023/06/14 08:41:08;;;;;;;1999.90;999.90;;;20.60;94.70;;;;;;5054166;28;20127;-72
2023/06/14 08:43:34;;;;;;;1999.90;999.90;;;20.70;94.40;;;;;;5053763;28;20037;-72
2023/06/14 08:46:06;;;;;;;1999.90;999.90;;;20.70;94.10;;;;;;5055062;28;20048;-71
2023/06/14 08:48:33;;;;;;;1999.90;999.90;;;20.80;94.00;;;;;;5054949;28;20049;-71
2023/06/14 08:51:04;;;;;;;1999.90;999.90;;;20.90;93.80;;;;;;5036678;28;20295;-70
2023/06/14 08:53:33;;;;;;;1999.90;999.90;;;20.90;93.50;;;;;;5053155;28;20099;-73
2023/06/14 08:56:04;;;;;;;1999.90;999.90;;;21.00;93.20;;;;;;5054149;28;20045;-71
2023/06/14 08:58:31;;;;;;;1999.90;999.90;;;21.00;93.10;;;;;;5054042;28;20048;-72
2023/06/14 09:01:03;;;;;;;1999.90;999.90;;;21.10;92.90;;;;;;5053399;28;20650;-70
2023/06/14 09:03:30;;;;;;;1999.90;999.90;;;21.10;92.70;;;;;;5052940;28;20044;-72
2023/06/14 09:05:59;;;;;;;1999.90;999.90;;;21.20;92.60;;;;;;5053962;28;20102;-70
2023/06/14 09:08:27;;;;;;;1999.90;999.90;;;21.20;92.30;;;;;;5054200;28;20472;-70
2023/06/14 09:10:53;;;;;;;1999.90;999.90;;;21.20;92.20;;;;;;5052953;28;20064;-71
2023/06/14 09:13:18;;;;;;;1999.90;999.90;;;21.30;92.10;;;;;;5052726;28;20045;-71
2023/06/14 09:15:44;;;;;;;1999.90;999.90;;;21.40;91.90;;;;;;5053478;28;20115;-71
2023/06/14 09:18:10;;;;;;;1999.90;999.90;;;21.40;91.70;;;;;;5053751;28;20060;-71
2023/06/14 09:20:37;;;;;;;1999.90;999.90;;;21.40;91.60;;;;;;5052873;28;20056;-70
2023/06/14 09:23:05;;;;;;;1999.90;999.90;;;21.50;91.30;;;;;;5054019;28;20049;-71
2023/06/14 09:25:30;;;;;;;1999.90;999.90;;;21.60;91.10;;;;;;5053664;28;20170;-71
2023/06/14 09:27:56;;;;;;;1999.90;999.90;;;21.40;90.90;;;;;;5035895;28;20135;-70
2023/06/14 09:30:22;;;;;;;1999.90;999.90;;;21.60;90.70;;;;;;5053636;28;20041;-75
2023/06/14 09:32:47;;;;;;;1999.90;999.90;;;21.70;90.50;;;;;;5053598;28;20053;-71
2023/06/14 09:35:18;;;;;;;1999.90;999.90;;;21.80;90.50;;;;;;5052515;28;20049;-71
2023/06/14 09:37:44;;;;;;;1999.90;999.90;;;21.80;90.50;;;;;;5052490;28;20080;-70
2023/06/14 09:40:11;;;;;;;1999.90;999.90;;;21.90;90.40;;;;;;5054246;28;20051;-72
2023/06/14 09:42:37;;;;;;;1999.90;999.90;;;21.90;90.10;;;;;;5053657;28;20064;-71
2023/06/14 09:45:04;;;;;;;1999.90;999.90;;;21.90;89.40;;;;;;5052061;28;20061;-71
2023/06/14 09:47:30;;;;;;;1999.90;999.90;;;21.90;89.10;;;;;;5052305;28;20118;-72
2023/06/14 09:49:56;;;;;;;1999.90;999.90;;;21.90;89.00;;;;;;5053508;28;20473;-71
2023/06/14 09:52:23;;;;;;;1999.90;999.90;;;22.00;88.70;;;;;;5035654;28;20084;-71
2023/06/14 09:54:49;;;;;;;1999.90;999.90;;;22.10;88.40;;;;;;5052573;28;20061;-70
2023/06/14 09:57:20;;;;;;;1999.90;999.90;;;22.10;88.20;;;;;;5052504;28;20080;-71
2023/06/14 09:59:50;;;;;;;1999.90;999.90;;;22.10;87.90;;;;;;5053753;28;20037;-70
2023/06/14 10:02:24;;;;;;;1999.90;999.90;;;22.20;87.90;;;;;;5053519;28;20102;-73
2023/06/14 10:05:03;;;;;;;1999.90;999.90;;;22.20;87.60;;;;;;5053398;28;20045;-72
2023/06/14 10:07:38;;;;;;;1999.90;999.90;;;22.30;87.50;;;;;;5036084;28;20053;-70
2023/06/14 10:10:06;;;;;;;1999.90;999.90;;;22.30;87.10;;;;;;5053768;28;20045;-70
2023/06/14 10:12:31;;;;;;;1999.90;999.90;;;22.40;86.50;;;;;;5054696;28;20049;-71
2023/06/14 10:14:58;;;;;;;1999.90;999.90;;;22.50;86.70;;;;;;5056760;28;20066;-71
2023/06/14 10:17:48;;;;;;;1999.90;999.90;;;22.50;85.80;;;;;;5057702;28;20053;-71
2023/06/14 10:20:32;;;;;;;1999.90;999.90;;;22.60;86.00;;;;;;5057827;28;20392;-71
2023/06/14 10:23:11;;;;;;;1999.90;999.90;;;22.50;85.50;;;;;;5058430;28;20378;-72
2023/06/14 10:25:37;;;;;;;1999.90;999.90;;;22.50;85.80;;;;;;5058660;28;20088;-72
2023/06/14 10:28:22;;;;;;;1999.90;999.90;;;22.60;85.10;;;;;;5043533;28;20063;-72
2023/06/14 10:31:08;;;;;;;1999.90;999.90;;;22.70;84.70;;;;;;5059773;28;20473;-71
2023/06/14 10:33:49;;;;;;;1999.90;999.90;;;22.80;84.30;;;;;;5061120;28;20044;-71
2023/06/14 10:36:31;;;;;;;1999.90;999.90;;;22.80;83.70;;;;;;5062937;28;20045;-71
2023/06/14 10:39:08;;;;;;;1999.90;999.90;;;22.90;84.10;;;;;;5065167;28;20045;-71
2023/06/14 10:41:40;;;;;;;1999.90;999.90;;;22.90;84.00;;;;;;5067869;28;20128;-71
2023/06/14 10:44:12;;;;;;;1999.90;999.90;;;22.90;83.50;;;;;;5067337;28;20397;-71
2023/06/14 10:46:52;;;;;;;1999.90;999.90;;;23.00;83.40;;;;;;5058956;28;20064;-72
2023/06/14 10:49:19;;;;;;;1999.90;999.90;;;23.10;82.60;;;;;;5060202;28;20101;-71
2023/06/14 10:51:49;;;;;;;1999.90;999.90;;;23.10;81.90;;;;;;5062367;28;20059;-70
2023/06/14 10:54:20;;;;;;;1999.90;999.90;;;23.10;81.40;;;;;;5058174;28;20049;-74
2023/06/14 10:56:54;;;;;;;1999.90;999.90;;;23.20;80.70;;;;;;5055586;28;20060;-69
2023/06/14 10:59:20;;;;;;;1999.90;999.90;;;23.20;80.00;;;;;;5059155;28;20037;-72
2023/06/14 11:02:04;;;;;;;1999.90;999.90;;;23.30;79.60;;;;;;5058388;28;20059;-72
2023/06/14 11:04:47;;;;;;;1999.90;999.90;;;23.30;79.20;;;;;;5060581;28;20045;-71
2023/06/14 11:07:32;;;;;;;1999.90;999.90;;;23.30;78.50;;;;;;5063116;28;20385;-72
2023/06/14 11:10:16;;;;;;;1999.90;999.90;;;23.30;78.70;;;;;;5064171;28;20041;-72
2023/06/14 11:12:47;;;;;;;1999.90;999.90;;;23.30;78.70;;;;;;5060477;28;20500;-72
2023/06/14 11:15:13;;;;;;;1999.90;999.90;;;23.30;77.90;;;;;;5057365;28;20179;-71
2023/06/14 11:17:38;;;;;;;1999.90;999.90;;;23.20;77.80;;;;;;5056671;28;20128;-70
2023/06/14 11:20:16;;;;;;;1999.90;999.90;;;23.20;77.90;;;;;;5056464;28;20041;-71
2023/06/14 11:22:45;;;;;;;1999.90;999.90;;;23.20;78.00;;;;;;5056408;28;20049;-71
2023/06/14 11:25:14;;;;;;;1999.90;999.90;;;23.30;77.80;;;;;;5055336;28;20049;-71
2023/06/14 11:27:43;;;;;;;1999.90;999.90;;;23.30;77.40;;;;;;5056283;28;20087;-73
2023/06/14 11:30:10;;;;;;;1999.90;999.90;;;23.40;77.20;;;;;;5055238;28;20056;-70
2023/06/14 11:32:37;;;;;;;1999.90;999.90;;;23.50;76.80;;;;;;5055750;28;20496;-70
2023/06/14 11:35:07;;;;;;;1999.90;999.90;;;23.50;76.60;;;;;;5055210;28;20481;-70
2023/06/14 11:37:33;;;;;;;1999.90;999.90;;;23.60;76.00;;;;;;5057174;28;20045;-71
2023/06/14 11:40:00;;;;;;;1999.90;999.90;;;23.60;75.80;;;;;;5056883;28;20045;-72
2023/06/14 11:42:29;;;;;;;1999.90;999.90;;;23.60;75.50;;;;;;5055788;28;20040;-75
2023/06/14 11:44:56;;;;;;;1999.90;999.90;;;23.60;75.50;;;;;;5058011;28;20092;-81
2023/06/14 11:47:22;;;;;;;1999.90;999.90;;;23.60;75.40;;;;;;5057606;28;20045;-70
2023/06/14 11:49:48;;;;;;;1999.90;999.90;;;23.70;75.20;;;;;;5055366;28;20080;-71
2023/06/14 11:52:14;;;;;;;1999.90;999.90;;;23.70;74.60;;;;;;5038532;28;20073;-72
2023/06/14 11:54:41;;;;;;;1999.90;999.90;;;23.70;74.80;;;;;;5055253;28;20103;-73
2023/06/14 11:57:07;;;;;;;1999.90;999.90;;;23.70;75.10;;;;;;5055549;28;20134;-73
2023/06/14 11:59:39;;;;;;;1999.90;999.90;;;23.80;75.00;;;;;;5054787;28;20120;-72
2023/06/14 12:02:07;;;;;;;1999.90;999.90;;;23.90;74.80;;;;;;5055296;28;20085;-69